x

West Tampa - 112 Nm Wnw Of Tampa, Fl (42036) Wave Buoy

10:50pm - Mon 22nd Dec 2014 All times are EST. -5 hours from GMT.

  • Sig Wave height 3.6ft
  • Swell Direction
  • Peak Period 7s
  • Average Period 5s
  • Wind
    16mph, 20mph gusts
  • Sea Temp 74°f
  • Air Temp 75°f
  • Sea Pressure 1011.6mb
  • West Tampa  - 112 Nm Wnw Of Tampa, Fl
  • West Tampa  - 112 Nm Wnw Of Tampa, Fl

More Historic Weather Station data

Upgrade to MSW Pro to gain access to the past 30 days of data for over 8000 Wavebouys and Weather Stations around the globe.

Join Pro

Comparision Forecast

View Surf forecast
   
Mon 12/22 10:50pm 3.5ft 7s 5s 16 20 mph 1011.6mb 74f 75f
9:50pm 4ft 7s 5s 13 16 mph 1011.6mb 74f 75f
8:50pm 4.5ft 7s 5s 11 13 mph 1011.7mb 74f 75f
7:50pm 4.5ft 7s 5s 9 11 mph 1011.8mb 74f 75f
6:50pm 4.5ft 7s 5s 9 11 mph 1011.2mb 74f 75f
5:50pm 5ft 7s 5s 11 13 mph 1011.2mb 74f 75f
4:50pm 4.5ft 7s 5s 13 18 mph 1010.8mb 74f 75f
3:50pm 5ft 7s 5s 16 18 mph 1010.5mb 74f 75f
2:50pm 5ft 7s 5s 16 18 mph 1010.4mb 74f 75f
1:50pm 5ft 7s 5s 18 20 mph 1010.7mb 73f 75f
12:50pm 4.5ft 7s 5s 13 16 mph 1011.8mb 73f 75f
11:50am 4.5ft 7s 5s 13
mph
1013mb 73f 75f
10:50am 4.5ft 7s 5s 9 11 mph 1013.8mb 73f 74f
9:50am 3.5ft 6s 4s 9
mph
1013.7mb 73f 74f
8:50am 3.5ft 4s 4s 11 16 mph 1013.4mb 73f 73f
7:50am 3ft 4s 4s 13 18 mph 1012.5mb 73f 73f
6:50am 2.5ft 5s 4s 16 18 mph 1013mb 73f 72f
5:50am 2.5ft 5s 4s 9 13 mph 1012.9mb 73f 73f
4:50am 2.5ft 5s 4s 13 16 mph 1012.6mb 73f 72f
3:50am 2.5ft 5s 4s 18 20 mph 1013.2mb 73f 71f
2:50am 2.5ft 5s 4s 13 16 mph 1013.8mb 74f 71f
1:50am 2.5ft 5s 4s 16 20 mph 1014.7mb 74f 71f
12:50am 2.5ft 5s 4s 16 18 mph 1014.8mb 74f 71f
Sun 12/21 11:50pm 2.5ft 5s 4s 9 11 mph 1015.3mb 74f 71f
10:50pm 2.5ft 5s 5s 4 7 mph 1015.9mb 74f 71f
9:50pm 2.5ft 6s 5s  -  4 mph 1016mb 73f 71f
8:50pm 2.5ft 6s 4s 2 4 mph 1016.5mb 74f 70f
7:50pm 2.5ft 5s 4s 13 18 mph 1015.6mb 74f 70f
6:50pm 2.5ft 4s 4s 11 13 mph 1015.2mb 74f 73f
5:50pm 2.5ft 5s 4s 4 7 mph 1015mb 73f 73f
4:50pm 2.5ft 5s 4s 2 4 mph 1014.8mb 73f 73f
3:50pm 2.5ft 4s 4s 7
mph
1014.5mb 73f 74f
2:50pm 2.5ft 5s 4s 2 4 mph 1014.9mb 73f 73f
1:50pm 3ft 5s 4s 4
mph
1015mb 73f 73f
12:50pm 2.5ft 5s 4s 2
mph
1015.9mb 72f 73f
11:50am 3ft 5s 4s 4
mph
1017.2mb 72f 73f
10:50am 3ft 5s 4s  -  2 mph 1017.6mb 72f 73f
9:50am 3ft 5s 4s 9 11 mph 1017.3mb 71f 72f
8:50am 3ft 5s 4s 9 11 mph 1017.2mb 71f 72f
7:50am 3ft 5s 4s 11 13 mph 1016.3mb 71f 72f
6:50am 3.5ft 4s 4s 9 11 mph 1016.5mb 71f 71f
5:50am 3.5ft 4s 4s 18 20 mph 1015.5mb 71f 71f
4:50am 3ft 3s 4s 16 20 mph 1015.4mb 71f 70f
3:50am 3ft 4s 4s 18 20 mph 1015.9mb 71f 70f
2:50am 2.5ft 5s 4s 16 18 mph 1016.3mb 71f 70f
1:50am 2.5ft 8s 4s 16 18 mph 1016.6mb 72f 70f
12:50am 2.5ft 8s 4s 16
mph
1017.1mb 72f 71f
Sat 12/20 11:50pm 2.5ft 5s 4s 13 16 mph 1017.5mb 72f 70f
10:50pm 2.5ft 4s 4s 13 16 mph 1017.6mb 71f 70f
9:50pm 2.5ft 4s 4s 16 18 mph 1017.5mb 71f 70f
8:50pm 2.5ft 4s 4s 16 18 mph 1017.4mb 71f 70f
7:50pm 2.5ft 4s 4s 16 18 mph 1017.1mb 71f 70f
6:50pm 2.5ft 4s 4s 13 16 mph 1016.9mb 71f 71f
5:50pm 2.5ft 4s 4s 9 11 mph 1016.6mb 71f 71f
4:50pm 2.5ft 4s 4s 13 16 mph 1016.4mb 71f 70f
3:50pm 2.5ft 4s 4s 11
mph
1016.3mb 71f 72f
2:50pm 2.5ft 4s 4s 13 16 mph 1016.2mb 71f 71f
1:50pm 2.5ft 4s 4s 18 20 mph 1016mb 71f 70f
12:50pm 2.5ft 4s 4s 18 20 mph 1016.7mb 71f 69f
11:50am 2ft 5s 4s 16
mph
1018.2mb 71f 69f
10:50am 2ft 5s 4s 13 16 mph 1018.5mb 71f 69f
9:50am 2.5ft 5s 4s 11 13 mph 1019mb 71f 69f
8:50am 2.5ft 5s 4s 13 16 mph 1018.4mb 71f 68f
7:50am 2.5ft 5s 4s 11 13 mph 1018.5mb 71f 67f
6:50am 2.5ft 4s 4s 13 16 mph 1017.8mb 71f 66f
5:50am 1.6ft 3s 3s 13
mph
1017.3mb 71f 66f
4:50am 1.6ft 3s 3s 11 16 mph 1017.2mb 71f 65f
3:50am 1.6ft 3s 3s 13 16 mph 1017.3mb 71f 65f
2:50am 1.3ft 3s 3s 18 20 mph 1017.2mb 71f 65f
1:50am 1.3ft 3s 3s 11 13 mph 1017.7mb 71f 67f
12:50am 1.6ft 3s 3s 9 11 mph 1018.1mb 71f 68f
Fri 12/19 11:50pm 1.6ft 3s 3s 11 13 mph 1018.7mb 71f 68f
10:50pm 1.6ft 3s 3s 11
mph
1018.6mb 71f 68f
9:50pm 1.6ft 4s 3s 11 13 mph 1018.6mb 71f 67f
8:50pm 1.6ft 4s 3s 13 16 mph 1018.1mb 71f 67f
7:50pm 1.3ft 3s 3s 11 13 mph 1018.3mb 71f 66f
6:50pm 1.3ft 3s 3s 13 16 mph 1017.9mb 71f 65f
5:50pm 1.3ft 3s 3s 11 13 mph 1018.1mb 71f 64f
4:50pm 1.3ft 3s 3s 11 13 mph 1017.9mb 71f 64f
3:50pm 1.3ft 3s 3s 9 13 mph 1018.2mb 71f 64f
2:50pm 1.3ft 3s 3s 11 13 mph 1018.1mb 71f 65f
1:50pm 1.3ft 3s 3s 11 13 mph 1018.8mb 71f 65f
12:50pm 1.3ft 3s 3s 9 11 mph 1019.8mb 71f 65f
11:50am 1.3ft 3s 3s 11 13 mph 1020.1mb 71f 65f
10:50am 1ft 3s 3s 9 13 mph 1021mb 71f 65f
9:50am 1ft 3s 3s 11 13 mph 1020.5mb 71f 65f
8:50am 1ft 3s 3s 9 11 mph 1020.2mb 71f 65f
7:50am 1ft 3s 3s 9 11 mph 1020mb 71f 65f
6:50am 1ft 3s 3s 7 9 mph 1019.6mb 71f 65f
5:50am 1ft 7s 3s 7 9 mph 1019.4mb 71f 65f